sensor_id;sensor_type;location;lat;lon;timestamp;P1;durP1;ratioP1;P2;durP2;ratioP2
25481;SDS011;13395;50.752;4.268;2023-10-13T00:01:46;48.47;;;22.88;;
25481;SDS011;13395;50.752;4.268;2023-10-13T00:04:17;50.28;;;24.48;;
25481;SDS011;13395;50.752;4.268;2023-10-13T00:06:47;47.60;;;25.02;;
25481;SDS011;13395;50.752;4.268;2023-10-13T00:09:13;44.28;;;24.38;;
25481;SDS011;13395;50.752;4.268;2023-10-13T00:11:42;42.78;;;22.73;;
25481;SDS011;13395;50.752;4.268;2023-10-13T00:14:12;49.35;;;24.30;;
25481;SDS011;13395;50.752;4.268;2023-10-13T00:16:46;42.55;;;22.17;;
25481;SDS011;13395;50.752;4.268;2023-10-13T00:19:29;45.03;;;24.00;;
25481;SDS011;13395;50.752;4.268;2023-10-13T00:22:06;55.72;;;25.63;;
25481;SDS011;13395;50.752;4.268;2023-10-13T00:24:37;52.60;;;23.90;;
25481;SDS011;13395;50.752;4.268;2023-10-13T00:27:15;52.63;;;26.17;;
25481;SDS011;13395;50.752;4.268;2023-10-13T00:32:47;51.75;;;24.95;;
25481;SDS011;13395;50.752;4.268;2023-10-13T00:35:20;61.58;;;25.85;;
25481;SDS011;13395;50.752;4.268;2023-10-13T00:38:07;59.25;;;25.85;;
25481;SDS011;13395;50.752;4.268;2023-10-13T00:40:53;57.33;;;26.00;;
25481;SDS011;13395;50.752;4.268;2023-10-13T00:43:19;49.92;;;25.13;;
25481;SDS011;13395;50.752;4.268;2023-10-13T00:45:56;51.53;;;24.70;;
25481;SDS011;13395;50.752;4.268;2023-10-13T00:48:23;57.15;;;27.05;;
25481;SDS011;13395;50.752;4.268;2023-10-13T00:50:57;68.78;;;28.95;;
25481;SDS011;13395;50.752;4.268;2023-10-13T00:53:28;55.73;;;26.33;;
25481;SDS011;13395;50.752;4.268;2023-10-13T00:58:35;59.20;;;28.17;;
25481;SDS011;13395;50.752;4.268;2023-10-13T01:01:04;59.92;;;28.92;;
25481;SDS011;13395;50.752;4.268;2023-10-13T01:03:54;51.97;;;26.40;;
25481;SDS011;13395;50.752;4.268;2023-10-13T01:06:24;57.53;;;26.88;;
25481;SDS011;13395;50.752;4.268;2023-10-13T01:08:56;57.72;;;27.33;;
25481;SDS011;13395;50.752;4.268;2023-10-13T01:11:23;62.00;;;26.88;;
25481;SDS011;13395;50.752;4.268;2023-10-13T01:13:49;61.08;;;27.23;;
25481;SDS011;13395;50.752;4.268;2023-10-13T01:16:16;52.97;;;24.25;;
25481;SDS011;13395;50.752;4.268;2023-10-13T01:18:43;53.38;;;26.88;;
25481;SDS011;13395;50.752;4.268;2023-10-13T01:21:17;51.22;;;25.08;;
25481;SDS011;13395;50.752;4.268;2023-10-13T01:23:45;53.60;;;24.60;;
25481;SDS011;13395;50.752;4.268;2023-10-13T01:26:12;50.38;;;25.33;;
25481;SDS011;13395;50.752;4.268;2023-10-13T01:28:46;56.87;;;25.63;;
25481;SDS011;13395;50.752;4.268;2023-10-13T01:31:12;41.17;;;21.48;;
25481;SDS011;13395;50.752;4.268;2023-10-13T01:33:49;39.40;;;21.90;;
25481;SDS011;13395;50.752;4.268;2023-10-13T01:36:18;48.80;;;21.88;;
25481;SDS011;13395;50.752;4.268;2023-10-13T01:38:48;37.97;;;20.58;;
25481;SDS011;13395;50.752;4.268;2023-10-13T01:41:15;33.90;;;20.17;;
25481;SDS011;13395;50.752;4.268;2023-10-13T01:43:41;41.67;;;20.05;;
25481;SDS011;13395;50.752;4.268;2023-10-13T01:46:07;34.15;;;20.42;;
25481;SDS011;13395;50.752;4.268;2023-10-13T01:48:34;36.47;;;19.83;;
25481;SDS011;13395;50.752;4.268;2023-10-13T01:51:04;36.55;;;19.33;;
25481;SDS011;13395;50.752;4.268;2023-10-13T01:53:31;39.38;;;20.02;;
25481;SDS011;13395;50.752;4.268;2023-10-13T01:55:56;31.08;;;18.05;;
25481;SDS011;13395;50.752;4.268;2023-10-13T01:58:22;40.17;;;19.10;;
25481;SDS011;13395;50.752;4.268;2023-10-13T02:00:48;31.77;;;18.65;;
25481;SDS011;13395;50.752;4.268;2023-10-13T02:03:14;35.47;;;18.75;;
25481;SDS011;13395;50.752;4.268;2023-10-13T02:05:42;30.38;;;16.95;;
25481;SDS011;13395;50.752;4.268;2023-10-13T02:08:22;32.60;;;18.67;;
25481;SDS011;13395;50.752;4.268;2023-10-13T02:10:52;37.55;;;18.25;;
25481;SDS011;13395;50.752;4.268;2023-10-13T02:13:20;32.72;;;17.90;;
25481;SDS011;13395;50.752;4.268;2023-10-13T02:15:47;36.72;;;18.15;;
25481;SDS011;13395;50.752;4.268;2023-10-13T02:18:16;38.08;;;18.75;;
25481;SDS011;13395;50.752;4.268;2023-10-13T02:20:55;38.72;;;17.75;;
25481;SDS011;13395;50.752;4.268;2023-10-13T02:23:25;32.97;;;16.42;;
25481;SDS011;13395;50.752;4.268;2023-10-13T02:25:54;29.60;;;17.23;;
25481;SDS011;13395;50.752;4.268;2023-10-13T02:28:28;35.03;;;16.63;;
25481;SDS011;13395;50.752;4.268;2023-10-13T02:30:56;29.95;;;16.27;;
25481;SDS011;13395;50.752;4.268;2023-10-13T02:33:22;30.55;;;16.77;;
25481;SDS011;13395;50.752;4.268;2023-10-13T02:35:54;31.30;;;17.52;;
25481;SDS011;13395;50.752;4.268;2023-10-13T02:38:30;44.58;;;18.40;;
25481;SDS011;13395;50.752;4.268;2023-10-13T02:41:14;35.95;;;17.30;;
25481;SDS011;13395;50.752;4.268;2023-10-13T02:44:02;31.95;;;15.77;;
25481;SDS011;13395;50.752;4.268;2023-10-13T02:46:32;31.85;;;15.35;;
25481;SDS011;13395;50.752;4.268;2023-10-13T02:49:00;32.22;;;16.67;;
25481;SDS011;13395;50.752;4.268;2023-10-13T02:51:38;28.10;;;16.30;;
25481;SDS011;13395;50.752;4.268;2023-10-13T02:54:09;41.15;;;17.00;;
25481;SDS011;13395;50.752;4.268;2023-10-13T02:56:35;34.08;;;16.55;;
25481;SDS011;13395;50.752;4.268;2023-10-13T02:59:02;35.25;;;15.98;;
25481;SDS011;13395;50.752;4.268;2023-10-13T03:01:34;34.30;;;15.90;;
25481;SDS011;13395;50.752;4.268;2023-10-13T03:04:01;27.73;;;15.57;;
25481;SDS011;13395;50.752;4.268;2023-10-13T03:06:33;34.83;;;15.90;;
25481;SDS011;13395;50.752;4.268;2023-10-13T03:09:18;30.13;;;15.05;;
25481;SDS011;13395;50.752;4.268;2023-10-13T03:11:47;30.83;;;15.55;;
25481;SDS011;13395;50.752;4.268;2023-10-13T03:14:14;30.00;;;14.27;;
25481;SDS011;13395;50.752;4.268;2023-10-13T03:16:51;31.60;;;15.25;;
25481;SDS011;13395;50.752;4.268;2023-10-13T03:19:18;29.45;;;14.40;;
25481;SDS011;13395;50.752;4.268;2023-10-13T03:21:47;34.35;;;13.82;;
25481;SDS011;13395;50.752;4.268;2023-10-13T03:24:30;31.30;;;15.02;;
25481;SDS011;13395;50.752;4.268;2023-10-13T03:26:59;25.42;;;14.13;;
25481;SDS011;13395;50.752;4.268;2023-10-13T03:29:38;24.60;;;14.15;;
25481;SDS011;13395;50.752;4.268;2023-10-13T03:32:07;28.80;;;13.82;;
25481;SDS011;13395;50.752;4.268;2023-10-13T03:34:37;28.73;;;13.15;;
25481;SDS011;13395;50.752;4.268;2023-10-13T03:37:11;28.48;;;13.70;;
25481;SDS011;13395;50.752;4.268;2023-10-13T03:39:43;25.00;;;13.35;;
25481;SDS011;13395;50.752;4.268;2023-10-13T03:42:10;28.67;;;13.00;;
25481;SDS011;13395;50.752;4.268;2023-10-13T03:44:44;27.67;;;11.65;;
25481;SDS011;13395;50.752;4.268;2023-10-13T03:47:13;26.27;;;12.82;;
25481;SDS011;13395;50.752;4.268;2023-10-13T03:49:52;27.73;;;11.93;;
25481;SDS011;13395;50.752;4.268;2023-10-13T03:52:40;24.85;;;11.90;;
25481;SDS011;13395;50.752;4.268;2023-10-13T03:55:06;38.78;;;14.60;;
25481;SDS011;13395;50.752;4.268;2023-10-13T03:57:33;26.95;;;11.93;;
25481;SDS011;13395;50.752;4.268;2023-10-13T04:00:05;34.63;;;13.00;;
25481;SDS011;13395;50.752;4.268;2023-10-13T04:02:34;26.27;;;11.43;;
25481;SDS011;13395;50.752;4.268;2023-10-13T04:05:01;22.85;;;10.90;;
25481;SDS011;13395;50.752;4.268;2023-10-13T04:07:34;21.63;;;12.23;;
25481;SDS011;13395;50.752;4.268;2023-10-13T04:10:25;31.33;;;12.85;;
25481;SDS011;13395;50.752;4.268;2023-10-13T04:13:08;24.77;;;11.80;;
25481;SDS011;13395;50.752;4.268;2023-10-13T04:15:42;25.65;;;11.48;;
25481;SDS011;13395;50.752;4.268;2023-10-13T04:18:28;24.75;;;11.70;;
25481;SDS011;13395;50.752;4.268;2023-10-13T04:21:12;28.35;;;12.35;;
25481;SDS011;13395;50.752;4.268;2023-10-13T04:23:56;21.90;;;11.70;;
25481;SDS011;13395;50.752;4.268;2023-10-13T04:26:34;37.20;;;13.50;;
25481;SDS011;13395;50.752;4.268;2023-10-13T04:29:22;24.25;;;11.38;;
25481;SDS011;13395;50.752;4.268;2023-10-13T04:32:06;27.30;;;12.00;;
25481;SDS011;13395;50.752;4.268;2023-10-13T04:34:38;32.58;;;13.75;;
25481;SDS011;13395;50.752;4.268;2023-10-13T04:37:04;35.38;;;13.15;;
25481;SDS011;13395;50.752;4.268;2023-10-13T04:40:08;27.92;;;12.88;;
25481;SDS011;13395;50.752;4.268;2023-10-13T04:42:35;31.75;;;13.63;;
25481;SDS011;13395;50.752;4.268;2023-10-13T04:45:05;29.17;;;13.73;;
25481;SDS011;13395;50.752;4.268;2023-10-13T04:47:52;33.47;;;13.55;;
25481;SDS011;13395;50.752;4.268;2023-10-13T04:50:22;28.63;;;13.60;;
25481;SDS011;13395;50.752;4.268;2023-10-13T04:52:59;29.05;;;12.27;;
25481;SDS011;13395;50.752;4.268;2023-10-13T04:55:28;32.83;;;13.38;;
25481;SDS011;13395;50.752;4.268;2023-10-13T04:58:24;34.42;;;12.38;;
25481;SDS011;13395;50.752;4.268;2023-10-13T05:01:09;28.23;;;11.73;;
25481;SDS011;13395;50.752;4.268;2023-10-13T05:03:49;23.60;;;9.65;;
25481;SDS011;13395;50.752;4.268;2023-10-13T05:06:47;26.48;;;9.50;;
25481;SDS011;13395;50.752;4.268;2023-10-13T05:09:31;22.92;;;9.35;;
25481;SDS011;13395;50.752;4.268;2023-10-13T05:12:29;20.77;;;9.25;;
25481;SDS011;13395;50.752;4.268;2023-10-13T05:15:13;21.98;;;9.70;;
25481;SDS011;13395;50.752;4.268;2023-10-13T05:17:57;22.25;;;8.93;;
25481;SDS011;13395;50.752;4.268;2023-10-13T05:20:41;21.23;;;8.77;;
25481;SDS011;13395;50.752;4.268;2023-10-13T05:23:25;28.55;;;9.52;;
25481;SDS011;13395;50.752;4.268;2023-10-13T05:26:09;21.52;;;8.77;;
25481;SDS011;13395;50.752;4.268;2023-10-13T05:28:53;27.95;;;9.38;;
25481;SDS011;13395;50.752;4.268;2023-10-13T05:31:37;25.05;;;9.57;;
25481;SDS011;13395;50.752;4.268;2023-10-13T05:34:21;21.40;;;8.75;;
25481;SDS011;13395;50.752;4.268;2023-10-13T05:37:06;24.15;;;8.23;;
25481;SDS011;13395;50.752;4.268;2023-10-13T05:39:50;26.80;;;8.52;;
25481;SDS011;13395;50.752;4.268;2023-10-13T05:42:34;21.65;;;8.40;;
25481;SDS011;13395;50.752;4.268;2023-10-13T05:45:17;22.00;;;8.77;;
25481;SDS011;13395;50.752;4.268;2023-10-13T05:47:43;26.90;;;9.50;;
25481;SDS011;13395;50.752;4.268;2023-10-13T05:50:09;25.00;;;8.98;;
25481;SDS011;13395;50.752;4.268;2023-10-13T05:52:47;25.23;;;10.13;;
25481;SDS011;13395;50.752;4.268;2023-10-13T05:55:26;20.50;;;9.07;;
25481;SDS011;13395;50.752;4.268;2023-10-13T05:58:11;32.60;;;7.88;;
25481;SDS011;13395;50.752;4.268;2023-10-13T06:03:40;18.40;;;7.37;;
25481;SDS011;13395;50.752;4.268;2023-10-13T06:06:24;15.40;;;8.43;;
25481;SDS011;13395;50.752;4.268;2023-10-13T06:09:09;21.92;;;8.73;;
25481;SDS011;13395;50.752;4.268;2023-10-13T06:11:53;17.60;;;7.93;;
25481;SDS011;13395;50.752;4.268;2023-10-13T06:14:37;24.05;;;7.97;;
25481;SDS011;13395;50.752;4.268;2023-10-13T06:17:22;21.60;;;8.45;;
25481;SDS011;13395;50.752;4.268;2023-10-13T06:20:06;16.55;;;7.15;;
25481;SDS011;13395;50.752;4.268;2023-10-13T06:22:51;20.85;;;7.88;;
25481;SDS011;13395;50.752;4.268;2023-10-13T06:25:35;15.50;;;8.07;;
25481;SDS011;13395;50.752;4.268;2023-10-13T06:28:19;17.45;;;7.20;;
25481;SDS011;13395;50.752;4.268;2023-10-13T06:31:04;18.33;;;8.60;;
25481;SDS011;13395;50.752;4.268;2023-10-13T06:33:33;21.25;;;7.78;;
25481;SDS011;13395;50.752;4.268;2023-10-13T06:36:00;35.65;;;8.02;;
25481;SDS011;13395;50.752;4.268;2023-10-13T06:38:27;21.73;;;8.07;;
25481;SDS011;13395;50.752;4.268;2023-10-13T06:41:01;32.63;;;8.20;;
25481;SDS011;13395;50.752;4.268;2023-10-13T06:43:30;19.80;;;8.60;;
25481;SDS011;13395;50.752;4.268;2023-10-13T06:45:57;19.77;;;7.32;;
25481;SDS011;13395;50.752;4.268;2023-10-13T06:48:25;13.93;;;6.18;;
25481;SDS011;13395;50.752;4.268;2023-10-13T06:50:52;16.63;;;7.03;;
25481;SDS011;13395;50.752;4.268;2023-10-13T06:53:21;18.10;;;7.18;;
25481;SDS011;13395;50.752;4.268;2023-10-13T06:55:47;13.80;;;6.32;;
25481;SDS011;13395;50.752;4.268;2023-10-13T06:58:17;19.95;;;6.32;;
25481;SDS011;13395;50.752;4.268;2023-10-13T07:00:48;17.55;;;6.78;;
25481;SDS011;13395;50.752;4.268;2023-10-13T07:05:50;18.35;;;6.50;;
25481;SDS011;13395;50.752;4.268;2023-10-13T07:08:16;22.75;;;6.88;;
25481;SDS011;13395;50.752;4.268;2023-10-13T07:10:53;16.80;;;6.25;;
25481;SDS011;13395;50.752;4.268;2023-10-13T07:13:30;20.23;;;7.53;;
25481;SDS011;13395;50.752;4.268;2023-10-13T07:15:56;12.38;;;5.85;;
25481;SDS011;13395;50.752;4.268;2023-10-13T07:18:32;15.18;;;6.30;;
25481;SDS011;13395;50.752;4.268;2023-10-13T07:21:03;17.27;;;5.88;;
25481;SDS011;13395;50.752;4.268;2023-10-13T07:23:35;13.88;;;6.28;;
25481;SDS011;13395;50.752;4.268;2023-10-13T07:26:01;13.95;;;6.68;;
25481;SDS011;13395;50.752;4.268;2023-10-13T07:28:30;13.20;;;6.50;;
25481;SDS011;13395;50.752;4.268;2023-10-13T07:30:56;18.95;;;6.05;;
25481;SDS011;13395;50.752;4.268;2023-10-13T07:33:22;17.77;;;7.22;;
25481;SDS011;13395;50.752;4.268;2023-10-13T07:35:58;15.65;;;6.93;;
25481;SDS011;13395;50.752;4.268;2023-10-13T07:38:58;17.45;;;6.20;;
25481;SDS011;13395;50.752;4.268;2023-10-13T07:41:42;12.45;;;5.97;;
25481;SDS011;13395;50.752;4.268;2023-10-13T07:44:07;15.18;;;6.55;;
25481;SDS011;13395;50.752;4.268;2023-10-13T07:46:33;16.20;;;6.32;;
25481;SDS011;13395;50.752;4.268;2023-10-13T07:49:00;14.93;;;6.00;;
25481;SDS011;13395;50.752;4.268;2023-10-13T07:51:34;17.35;;;6.70;;
25481;SDS011;13395;50.752;4.268;2023-10-13T07:54:09;24.98;;;6.93;;
25481;SDS011;13395;50.752;4.268;2023-10-13T07:56:47;15.50;;;6.85;;
25481;SDS011;13395;50.752;4.268;2023-10-13T07:59:12;22.83;;;6.55;;
25481;SDS011;13395;50.752;4.268;2023-10-13T08:01:40;14.23;;;5.18;;
25481;SDS011;13395;50.752;4.268;2023-10-13T08:04:08;16.90;;;5.07;;
25481;SDS011;13395;50.752;4.268;2023-10-13T08:06:38;17.98;;;6.40;;
25481;SDS011;13395;50.752;4.268;2023-10-13T08:09:06;17.52;;;6.55;;
25481;SDS011;13395;50.752;4.268;2023-10-13T08:11:55;21.65;;;6.70;;
25481;SDS011;13395;50.752;4.268;2023-10-13T08:14:21;18.05;;;6.32;;
25481;SDS011;13395;50.752;4.268;2023-10-13T08:16:54;21.00;;;7.28;;
25481;SDS011;13395;50.752;4.268;2023-10-13T08:19:27;12.35;;;6.60;;
25481;SDS011;13395;50.752;4.268;2023-10-13T08:21:57;11.27;;;6.13;;
25481;SDS011;13395;50.752;4.268;2023-10-13T08:24:25;13.48;;;6.50;;
25481;SDS011;13395;50.752;4.268;2023-10-13T08:27:15;13.02;;;6.43;;
25481;SDS011;13395;50.752;4.268;2023-10-13T08:30:02;16.65;;;7.00;;
25481;SDS011;13395;50.752;4.268;2023-10-13T08:32:51;13.25;;;6.13;;
25481;SDS011;13395;50.752;4.268;2023-10-13T08:35:22;16.08;;;6.85;;
25481;SDS011;13395;50.752;4.268;2023-10-13T08:37:58;17.50;;;7.53;;
25481;SDS011;13395;50.752;4.268;2023-10-13T08:40:28;19.70;;;7.00;;
25481;SDS011;13395;50.752;4.268;2023-10-13T08:43:13;16.08;;;6.82;;
25481;SDS011;13395;50.752;4.268;2023-10-13T08:45:39;20.20;;;6.75;;
25481;SDS011;13395;50.752;4.268;2023-10-13T08:48:11;13.68;;;7.18;;
25481;SDS011;13395;50.752;4.268;2023-10-13T08:53:18;17.00;;;6.00;;
25481;SDS011;13395;50.752;4.268;2023-10-13T08:58:46;11.38;;;7.38;;
25481;SDS011;13395;50.752;4.268;2023-10-13T09:01:28;14.93;;;6.30;;
25481;SDS011;13395;50.752;4.268;2023-10-13T09:04:11;12.40;;;7.03;;
25481;SDS011;13395;50.752;4.268;2023-10-13T09:06:44;8.70;;;6.07;;
25481;SDS011;13395;50.752;4.268;2023-10-13T09:09:30;14.05;;;7.47;;
25481;SDS011;13395;50.752;4.268;2023-10-13T09:12:02;15.20;;;8.23;;
25481;SDS011;13395;50.752;4.268;2023-10-13T09:14:38;14.38;;;6.82;;
25481;SDS011;13395;50.752;4.268;2023-10-13T09:17:21;18.08;;;7.10;;
25481;SDS011;13395;50.752;4.268;2023-10-13T09:22:47;23.05;;;8.48;;
25481;SDS011;13395;50.752;4.268;2023-10-13T09:25:32;18.23;;;8.32;;
25481;SDS011;13395;50.752;4.268;2023-10-13T09:28:03;14.88;;;6.75;;
25481;SDS011;13395;50.752;4.268;2023-10-13T09:30:49;12.85;;;7.60;;
25481;SDS011;13395;50.752;4.268;2023-10-13T09:33:25;25.73;;;8.30;;
25481;SDS011;13395;50.752;4.268;2023-10-13T09:35:59;17.33;;;7.05;;
25481;SDS011;13395;50.752;4.268;2023-10-13T09:38:28;13.50;;;6.50;;
25481;SDS011;13395;50.752;4.268;2023-10-13T09:40:54;13.77;;;7.07;;
25481;SDS011;13395;50.752;4.268;2023-10-13T09:43:23;13.93;;;6.15;;
25481;SDS011;13395;50.752;4.268;2023-10-13T09:45:50;16.15;;;7.00;;
25481;SDS011;13395;50.752;4.268;2023-10-13T09:50:59;14.63;;;7.75;;
25481;SDS011;13395;50.752;4.268;2023-10-13T09:53:28;14.82;;;7.10;;
25481;SDS011;13395;50.752;4.268;2023-10-13T09:55:58;12.95;;;6.47;;
25481;SDS011;13395;50.752;4.268;2023-10-13T09:58:38;19.30;;;7.45;;
25481;SDS011;13395;50.752;4.268;2023-10-13T10:01:25;13.77;;;6.50;;
25481;SDS011;13395;50.752;4.268;2023-10-13T10:04:06;13.75;;;6.68;;
25481;SDS011;13395;50.752;4.268;2023-10-13T10:06:33;13.68;;;7.30;;
25481;SDS011;13395;50.752;4.268;2023-10-13T10:09:09;20.85;;;7.85;;
25481;SDS011;13395;50.752;4.268;2023-10-13T10:14:16;19.17;;;6.68;;
25481;SDS011;13395;50.752;4.268;2023-10-13T10:19:49;17.08;;;6.53;;
25481;SDS011;13395;50.752;4.268;2023-10-13T10:22:26;16.00;;;6.35;;
25481;SDS011;13395;50.752;4.268;2023-10-13T10:25:04;17.42;;;6.65;;
25481;SDS011;13395;50.752;4.268;2023-10-13T10:27:56;21.67;;;6.47;;
25481;SDS011;13395;50.752;4.268;2023-10-13T10:30:24;16.58;;;6.85;;
25481;SDS011;13395;50.752;4.268;2023-10-13T10:32:54;24.30;;;8.55;;
25481;SDS011;13395;50.752;4.268;2023-10-13T10:35:24;16.63;;;7.28;;
25481;SDS011;13395;50.752;4.268;2023-10-13T10:38:07;21.07;;;7.13;;
25481;SDS011;13395;50.752;4.268;2023-10-13T10:41:05;20.80;;;7.43;;
25481;SDS011;13395;50.752;4.268;2023-10-13T10:46:11;19.38;;;6.65;;
25481;SDS011;13395;50.752;4.268;2023-10-13T10:48:37;18.40;;;6.72;;
25481;SDS011;13395;50.752;4.268;2023-10-13T10:51:08;16.92;;;7.28;;
25481;SDS011;13395;50.752;4.268;2023-10-13T10:53:47;16.27;;;6.60;;
25481;SDS011;13395;50.752;4.268;2023-10-13T10:56:14;22.63;;;6.60;;
25481;SDS011;13395;50.752;4.268;2023-10-13T10:58:59;19.00;;;6.47;;
25481;SDS011;13395;50.752;4.268;2023-10-13T11:01:28;23.48;;;7.65;;
25481;SDS011;13395;50.752;4.268;2023-10-13T11:04:06;18.42;;;6.72;;
25481;SDS011;13395;50.752;4.268;2023-10-13T11:06:48;27.92;;;7.22;;
25481;SDS011;13395;50.752;4.268;2023-10-13T11:09:23;18.00;;;6.65;;
25481;SDS011;13395;50.752;4.268;2023-10-13T11:11:55;21.50;;;7.47;;
25481;SDS011;13395;50.752;4.268;2023-10-13T11:14:23;18.20;;;7.95;;
25481;SDS011;13395;50.752;4.268;2023-10-13T11:16:53;19.88;;;7.13;;
25481;SDS011;13395;50.752;4.268;2023-10-13T11:19:20;20.98;;;8.07;;
25481;SDS011;13395;50.752;4.268;2023-10-13T11:21:50;24.88;;;7.53;;
25481;SDS011;13395;50.752;4.268;2023-10-13T11:24:18;28.90;;;7.28;;
25481;SDS011;13395;50.752;4.268;2023-10-13T11:26:46;17.80;;;7.35;;
25481;SDS011;13395;50.752;4.268;2023-10-13T11:29:17;16.10;;;7.00;;
25481;SDS011;13395;50.752;4.268;2023-10-13T11:31:47;23.33;;;7.75;;
25481;SDS011;13395;50.752;4.268;2023-10-13T11:34:25;13.48;;;6.55;;
25481;SDS011;13395;50.752;4.268;2023-10-13T11:37:01;15.45;;;6.93;;
25481;SDS011;13395;50.752;4.268;2023-10-13T11:39:46;10.82;;;5.97;;
25481;SDS011;13395;50.752;4.268;2023-10-13T11:42:12;18.45;;;6.30;;
25481;SDS011;13395;50.752;4.268;2023-10-13T11:44:42;18.48;;;6.50;;
25481;SDS011;13395;50.752;4.268;2023-10-13T11:47:10;17.95;;;7.65;;
25481;SDS011;13395;50.752;4.268;2023-10-13T11:50:01;23.55;;;6.57;;
25481;SDS011;13395;50.752;4.268;2023-10-13T11:52:30;18.85;;;6.78;;
25481;SDS011;13395;50.752;4.268;2023-10-13T11:54:55;18.88;;;7.47;;
25481;SDS011;13395;50.752;4.268;2023-10-13T11:57:21;21.52;;;5.68;;
25481;SDS011;13395;50.752;4.268;2023-10-13T11:59:47;15.95;;;6.13;;
25481;SDS011;13395;50.752;4.268;2023-10-13T12:02:20;16.07;;;5.90;;
25481;SDS011;13395;50.752;4.268;2023-10-13T12:04:52;17.70;;;5.93;;
25481;SDS011;13395;50.752;4.268;2023-10-13T12:07:20;20.25;;;5.72;;
25481;SDS011;13395;50.752;4.268;2023-10-13T12:09:49;16.80;;;6.15;;
25481;SDS011;13395;50.752;4.268;2023-10-13T12:12:22;14.60;;;6.53;;
25481;SDS011;13395;50.752;4.268;2023-10-13T12:14:48;23.15;;;6.85;;
25481;SDS011;13395;50.752;4.268;2023-10-13T12:17:30;11.50;;;6.15;;
25481;SDS011;13395;50.752;4.268;2023-10-13T12:20:04;13.53;;;6.03;;
25481;SDS011;13395;50.752;4.268;2023-10-13T12:22:34;15.00;;;6.03;;
25481;SDS011;13395;50.752;4.268;2023-10-13T12:25:09;12.85;;;6.07;;
25481;SDS011;13395;50.752;4.268;2023-10-13T12:27:50;11.35;;;5.70;;
25481;SDS011;13395;50.752;4.268;2023-10-13T12:30:21;12.02;;;5.47;;
25481;SDS011;13395;50.752;4.268;2023-10-13T12:33:23;11.30;;;5.75;;
25481;SDS011;13395;50.752;4.268;2023-10-13T12:35:59;26.73;;;6.90;;
25481;SDS011;13395;50.752;4.268;2023-10-13T12:38:35;19.20;;;6.43;;
25481;SDS011;13395;50.752;4.268;2023-10-13T12:41:13;14.32;;;6.15;;
25481;SDS011;13395;50.752;4.268;2023-10-13T12:43:58;14.05;;;5.90;;
25481;SDS011;13395;50.752;4.268;2023-10-13T12:49:27;12.37;;;5.90;;
25481;SDS011;13395;50.752;4.268;2023-10-13T12:52:08;15.05;;;5.85;;
25481;SDS011;13395;50.752;4.268;2023-10-13T12:54:44;14.55;;;6.10;;
25481;SDS011;13395;50.752;4.268;2023-10-13T12:57:22;14.57;;;5.95;;
25481;SDS011;13395;50.752;4.268;2023-10-13T12:59:52;13.35;;;5.85;;
25481;SDS011;13395;50.752;4.268;2023-10-13T13:02:20;16.63;;;6.55;;
25481;SDS011;13395;50.752;4.268;2023-10-13T13:04:47;18.77;;;6.57;;
25481;SDS011;13395;50.752;4.268;2023-10-13T13:07:19;15.57;;;5.72;;
25481;SDS011;13395;50.752;4.268;2023-10-13T13:09:45;11.48;;;5.35;;
25481;SDS011;13395;50.752;4.268;2023-10-13T13:12:10;16.33;;;6.13;;
25481;SDS011;13395;50.752;4.268;2023-10-13T13:14:37;13.45;;;5.97;;
25481;SDS011;13395;50.752;4.268;2023-10-13T13:17:05;18.02;;;5.90;;
25481;SDS011;13395;50.752;4.268;2023-10-13T13:19:34;17.00;;;5.93;;
25481;SDS011;13395;50.752;4.268;2023-10-13T13:22:01;16.60;;;6.00;;
25481;SDS011;13395;50.752;4.268;2023-10-13T13:24:28;13.65;;;5.45;;
25481;SDS011;13395;50.752;4.268;2023-10-13T13:26:55;14.45;;;5.95;;
25481;SDS011;13395;50.752;4.268;2023-10-13T13:29:21;13.18;;;5.57;;
25481;SDS011;13395;50.752;4.268;2023-10-13T13:31:47;13.65;;;5.85;;
25481;SDS011;13395;50.752;4.268;2023-10-13T13:34:12;16.42;;;5.93;;
25481;SDS011;13395;50.752;4.268;2023-10-13T13:36:38;10.07;;;5.22;;
25481;SDS011;13395;50.752;4.268;2023-10-13T13:39:10;13.00;;;6.05;;
25481;SDS011;13395;50.752;4.268;2023-10-13T13:41:36;17.25;;;5.60;;
25481;SDS011;13395;50.752;4.268;2023-10-13T13:44:03;16.90;;;5.63;;
25481;SDS011;13395;50.752;4.268;2023-10-13T13:46:38;12.60;;;5.82;;
25481;SDS011;13395;50.752;4.268;2023-10-13T13:49:08;12.55;;;5.95;;
25481;SDS011;13395;50.752;4.268;2023-10-13T13:51:43;15.77;;;5.95;;
25481;SDS011;13395;50.752;4.268;2023-10-13T13:54:18;11.45;;;6.38;;
25481;SDS011;13395;50.752;4.268;2023-10-13T13:56:44;16.65;;;5.50;;
25481;SDS011;13395;50.752;4.268;2023-10-13T13:59:10;11.10;;;5.38;;
25481;SDS011;13395;50.752;4.268;2023-10-13T14:01:40;14.70;;;6.07;;
25481;SDS011;13395;50.752;4.268;2023-10-13T14:04:09;22.40;;;6.10;;
25481;SDS011;13395;50.752;4.268;2023-10-13T14:06:35;11.75;;;5.25;;
25481;SDS011;13395;50.752;4.268;2023-10-13T14:09:03;16.10;;;6.15;;
25481;SDS011;13395;50.752;4.268;2023-10-13T14:11:39;12.05;;;5.57;;
25481;SDS011;13395;50.752;4.268;2023-10-13T14:14:05;21.25;;;6.47;;
25481;SDS011;13395;50.752;4.268;2023-10-13T14:16:46;20.00;;;6.30;;
25481;SDS011;13395;50.752;4.268;2023-10-13T14:19:14;22.83;;;6.70;;
25481;SDS011;13395;50.752;4.268;2023-10-13T14:21:51;17.85;;;5.78;;
25481;SDS011;13395;50.752;4.268;2023-10-13T14:24:18;15.88;;;5.70;;
25481;SDS011;13395;50.752;4.268;2023-10-13T14:26:52;15.30;;;5.93;;
25481;SDS011;13395;50.752;4.268;2023-10-13T14:29:19;13.18;;;6.30;;
25481;SDS011;13395;50.752;4.268;2023-10-13T14:31:44;10.00;;;6.05;;
25481;SDS011;13395;50.752;4.268;2023-10-13T14:34:13;11.43;;;5.88;;
25481;SDS011;13395;50.752;4.268;2023-10-13T14:36:40;10.23;;;5.57;;
25481;SDS011;13395;50.752;4.268;2023-10-13T14:39:06;11.55;;;6.50;;
25481;SDS011;13395;50.752;4.268;2023-10-13T14:41:35;14.15;;;5.40;;
25481;SDS011;13395;50.752;4.268;2023-10-13T14:44:02;12.75;;;6.07;;
25481;SDS011;13395;50.752;4.268;2023-10-13T14:46:31;21.10;;;5.85;;
25481;SDS011;13395;50.752;4.268;2023-10-13T14:49:00;10.55;;;5.60;;
25481;SDS011;13395;50.752;4.268;2023-10-13T14:51:29;13.73;;;6.38;;
25481;SDS011;13395;50.752;4.268;2023-10-13T14:53:56;9.48;;;5.75;;
25481;SDS011;13395;50.752;4.268;2023-10-13T14:56:24;9.63;;;5.47;;
25481;SDS011;13395;50.752;4.268;2023-10-13T14:58:51;14.52;;;6.30;;
25481;SDS011;13395;50.752;4.268;2023-10-13T15:01:19;13.30;;;5.63;;
25481;SDS011;13395;50.752;4.268;2023-10-13T15:03:46;8.15;;;5.50;;
25481;SDS011;13395;50.752;4.268;2023-10-13T15:06:16;10.02;;;6.18;;
25481;SDS011;13395;50.752;4.268;2023-10-13T15:08:54;10.82;;;6.00;;
25481;SDS011;13395;50.752;4.268;2023-10-13T15:11:24;15.63;;;5.70;;
25481;SDS011;13395;50.752;4.268;2023-10-13T15:14:01;9.48;;;5.30;;
25481;SDS011;13395;50.752;4.268;2023-10-13T15:16:31;20.42;;;6.47;;
25481;SDS011;13395;50.752;4.268;2023-10-13T15:18:58;12.55;;;5.90;;
25481;SDS011;13395;50.752;4.268;2023-10-13T15:21:28;14.98;;;6.43;;
25481;SDS011;13395;50.752;4.268;2023-10-13T15:24:01;18.35;;;7.07;;
25481;SDS011;13395;50.752;4.268;2023-10-13T15:26:39;10.55;;;6.10;;
25481;SDS011;13395;50.752;4.268;2023-10-13T15:29:10;11.30;;;5.97;;
25481;SDS011;13395;50.752;4.268;2023-10-13T15:31:37;12.55;;;6.65;;
25481;SDS011;13395;50.752;4.268;2023-10-13T15:34:07;10.07;;;6.38;;
25481;SDS011;13395;50.752;4.268;2023-10-13T15:36:39;12.77;;;6.15;;
25481;SDS011;13395;50.752;4.268;2023-10-13T15:39:06;14.43;;;6.05;;
25481;SDS011;13395;50.752;4.268;2023-10-13T15:41:35;15.43;;;6.40;;